sensor_id;sensor_type;location;lat;lon;timestamp;temperature;humidity
1367;DHT22;16877;48.810;9.282;2022-12-07T00:01:12;14.30;55.80
1367;DHT22;16877;48.810;9.282;2022-12-07T00:03:43;14.30;55.80
1367;DHT22;16877;48.810;9.282;2022-12-07T00:06:12;14.30;55.80
1367;DHT22;16877;48.810;9.282;2022-12-07T00:08:42;14.30;55.80
1367;DHT22;16877;48.810;9.282;2022-12-07T00:11:11;14.30;55.80
1367;DHT22;16877;48.810;9.282;2022-12-07T00:13:41;14.30;55.90
1367;DHT22;16877;48.810;9.282;2022-12-07T00:16:10;14.30;55.90
1367;DHT22;16877;48.810;9.282;2022-12-07T00:18:38;14.30;55.80
1367;DHT22;16877;48.810;9.282;2022-12-07T00:21:07;14.30;55.80
1367;DHT22;16877;48.810;9.282;2022-12-07T00:23:35;14.30;55.70
1367;DHT22;16877;48.810;9.282;2022-12-07T00:26:06;14.30;55.80
1367;DHT22;16877;48.810;9.282;2022-12-07T00:28:34;14.30;55.90
1367;DHT22;16877;48.810;9.282;2022-12-07T00:31:03;14.30;55.90
1367;DHT22;16877;48.810;9.282;2022-12-07T00:33:31;14.30;55.80
1367;DHT22;16877;48.810;9.282;2022-12-07T00:35:59;14.30;55.80
1367;DHT22;16877;48.810;9.282;2022-12-07T00:38:28;14.30;55.80
1367;DHT22;16877;48.810;9.282;2022-12-07T00:40:57;14.30;55.80
1367;DHT22;16877;48.810;9.282;2022-12-07T00:43:29;14.30;55.80
1367;DHT22;16877;48.810;9.282;2022-12-07T00:45:56;14.30;55.80
1367;DHT22;16877;48.810;9.282;2022-12-07T00:48:24;14.30;55.80
1367;DHT22;16877;48.810;9.282;2022-12-07T00:50:51;14.30;55.90
1367;DHT22;16877;48.810;9.282;2022-12-07T00:53:20;14.30;56.00
1367;DHT22;16877;48.810;9.282;2022-12-07T00:55:47;14.30;55.90
1367;DHT22;16877;48.810;9.282;2022-12-07T00:58:16;14.30;55.90
1367;DHT22;16877;48.810;9.282;2022-12-07T01:00:45;14.30;56.00
1367;DHT22;16877;48.810;9.282;2022-12-07T01:03:13;14.40;55.90
1367;DHT22;16877;48.810;9.282;2022-12-07T01:05:49;14.40;55.90
1367;DHT22;16877;48.810;9.282;2022-12-07T01:08:19;14.40;55.90
1367;DHT22;16877;48.810;9.282;2022-12-07T01:10:46;14.30;55.80
1367;DHT22;16877;48.810;9.282;2022-12-07T01:13:15;14.40;55.80
1367;DHT22;16877;48.810;9.282;2022-12-07T01:15:45;14.30;55.80
1367;DHT22;16877;48.810;9.282;2022-12-07T01:18:12;14.30;55.70
1367;DHT22;16877;48.810;9.282;2022-12-07T01:20:44;14.40;55.80
1367;DHT22;16877;48.810;9.282;2022-12-07T01:23:12;14.40;55.70
1367;DHT22;16877;48.810;9.282;2022-12-07T01:25:40;14.30;55.60
1367;DHT22;16877;48.810;9.282;2022-12-07T01:28:07;14.30;55.60
1367;DHT22;16877;48.810;9.282;2022-12-07T01:30:37;14.40;55.60
1367;DHT22;16877;48.810;9.282;2022-12-07T01:33:07;14.30;55.50
1367;DHT22;16877;48.810;9.282;2022-12-07T01:35:36;14.30;55.60
1367;DHT22;16877;48.810;9.282;2022-12-07T01:38:08;14.30;55.40
1367;DHT22;16877;48.810;9.282;2022-12-07T01:40:37;14.30;55.50
1367;DHT22;16877;48.810;9.282;2022-12-07T01:43:04;14.30;55.40
1367;DHT22;16877;48.810;9.282;2022-12-07T01:45:39;14.30;55.40
1367;DHT22;16877;48.810;9.282;2022-12-07T01:48:10;14.30;55.30
1367;DHT22;16877;48.810;9.282;2022-12-07T01:50:38;14.20;55.20
1367;DHT22;16877;48.810;9.282;2022-12-07T01:53:09;14.30;55.30
1367;DHT22;16877;48.810;9.282;2022-12-07T01:55:40;14.20;55.20
1367;DHT22;16877;48.810;9.282;2022-12-07T01:58:09;14.20;55.20
1367;DHT22;16877;48.810;9.282;2022-12-07T02:00:37;14.30;55.20
1367;DHT22;16877;48.810;9.282;2022-12-07T02:03:09;14.30;55.30
1367;DHT22;16877;48.810;9.282;2022-12-07T02:05:40;14.30;55.40
1367;DHT22;16877;48.810;9.282;2022-12-07T02:08:10;14.20;55.30
1367;DHT22;16877;48.810;9.282;2022-12-07T02:10:39;14.30;55.30
1367;DHT22;16877;48.810;9.282;2022-12-07T02:13:09;14.30;55.50
1367;DHT22;16877;48.810;9.282;2022-12-07T02:15:59;14.30;55.50
1367;DHT22;16877;48.810;9.282;2022-12-07T02:18:45;14.30;55.40
1367;DHT22;16877;48.810;9.282;2022-12-07T02:21:19;14.30;55.30
1367;DHT22;16877;48.810;9.282;2022-12-07T02:24:03;14.30;55.10
1367;DHT22;16877;48.810;9.282;2022-12-07T02:27:01;14.20;54.90
1367;DHT22;16877;48.810;9.282;2022-12-07T02:29:40;14.20;55.00
1367;DHT22;16877;48.810;9.282;2022-12-07T02:32:15;14.20;54.90
1367;DHT22;16877;48.810;9.282;2022-12-07T02:34:49;14.20;55.00
1367;DHT22;16877;48.810;9.282;2022-12-07T02:37:25;14.20;55.10
1367;DHT22;16877;48.810;9.282;2022-12-07T02:40:00;14.20;55.10
1367;DHT22;16877;48.810;9.282;2022-12-07T02:42:32;14.20;55.00
1367;DHT22;16877;48.810;9.282;2022-12-07T02:45:07;14.10;54.90
1367;DHT22;16877;48.810;9.282;2022-12-07T02:47:36;14.10;54.90
1367;DHT22;16877;48.810;9.282;2022-12-07T02:50:05;14.20;54.90
1367;DHT22;16877;48.810;9.282;2022-12-07T02:52:32;14.20;55.00
1367;DHT22;16877;48.810;9.282;2022-12-07T02:55:05;14.20;55.10
1367;DHT22;16877;48.810;9.282;2022-12-07T02:57:45;14.20;55.00
1367;DHT22;16877;48.810;9.282;2022-12-07T03:00:19;14.10;54.90
1367;DHT22;16877;48.810;9.282;2022-12-07T03:02:53;14.10;54.70
1367;DHT22;16877;48.810;9.282;2022-12-07T03:05:34;14.10;54.70
1367;DHT22;16877;48.810;9.282;2022-12-07T03:08:09;14.10;54.80
1367;DHT22;16877;48.810;9.282;2022-12-07T03:10:42;14.10;54.70
1367;DHT22;16877;48.810;9.282;2022-12-07T03:13:23;14.10;54.80
1367;DHT22;16877;48.810;9.282;2022-12-07T03:15:59;14.10;54.80
1367;DHT22;16877;48.810;9.282;2022-12-07T03:18:31;14.10;54.80
1367;DHT22;16877;48.810;9.282;2022-12-07T03:21:04;14.00;54.80
1367;DHT22;16877;48.810;9.282;2022-12-07T03:23:34;14.00;54.60
1367;DHT22;16877;48.810;9.282;2022-12-07T03:26:04;14.00;54.50
1367;DHT22;16877;48.810;9.282;2022-12-07T03:28:36;14.00;54.30
1367;DHT22;16877;48.810;9.282;2022-12-07T03:31:11;14.00;54.50
1367;DHT22;16877;48.810;9.282;2022-12-07T03:33:47;14.00;54.60
1367;DHT22;16877;48.810;9.282;2022-12-07T03:36:21;14.00;54.50
1367;DHT22;16877;48.810;9.282;2022-12-07T03:38:54;13.90;54.40
1367;DHT22;16877;48.810;9.282;2022-12-07T03:41:26;13.90;54.50
1367;DHT22;16877;48.810;9.282;2022-12-07T03:43:55;13.90;54.60
1367;DHT22;16877;48.810;9.282;2022-12-07T03:46:32;13.90;54.50
1367;DHT22;16877;48.810;9.282;2022-12-07T03:49:06;13.90;54.60
1367;DHT22;16877;48.810;9.282;2022-12-07T03:51:40;13.90;54.60
1367;DHT22;16877;48.810;9.282;2022-12-07T03:54:13;14.00;54.80
1367;DHT22;16877;48.810;9.282;2022-12-07T03:56:43;14.00;54.90
1367;DHT22;16877;48.810;9.282;2022-12-07T03:59:13;14.00;54.90
1367;DHT22;16877;48.810;9.282;2022-12-07T04:01:45;14.00;55.00
1367;DHT22;16877;48.810;9.282;2022-12-07T04:04:19;14.00;55.00
1367;DHT22;16877;48.810;9.282;2022-12-07T04:06:46;14.00;55.00
1367;DHT22;16877;48.810;9.282;2022-12-07T04:09:14;14.00;55.20
1367;DHT22;16877;48.810;9.282;2022-12-07T04:11:42;14.10;55.20
1367;DHT22;16877;48.810;9.282;2022-12-07T04:14:09;14.10;55.30
1367;DHT22;16877;48.810;9.282;2022-12-07T04:16:49;14.10;55.40
1367;DHT22;16877;48.810;9.282;2022-12-07T04:19:18;14.10;55.30
1367;DHT22;16877;48.810;9.282;2022-12-07T04:21:46;14.10;55.30
1367;DHT22;16877;48.810;9.282;2022-12-07T04:24:14;14.10;55.30
1367;DHT22;16877;48.810;9.282;2022-12-07T04:26:44;14.10;55.30
1367;DHT22;16877;48.810;9.282;2022-12-07T04:29:12;14.10;55.30
1367;DHT22;16877;48.810;9.282;2022-12-07T04:31:41;14.00;55.20
1367;DHT22;16877;48.810;9.282;2022-12-07T04:34:11;14.00;55.10
1367;DHT22;16877;48.810;9.282;2022-12-07T04:36:39;13.90;55.00
1367;DHT22;16877;48.810;9.282;2022-12-07T04:39:07;13.90;54.70
1367;DHT22;16877;48.810;9.282;2022-12-07T04:41:35;13.90;54.90
1367;DHT22;16877;48.810;9.282;2022-12-07T04:44:03;13.90;54.70
1367;DHT22;16877;48.810;9.282;2022-12-07T04:46:33;13.80;54.60
1367;DHT22;16877;48.810;9.282;2022-12-07T04:49:00;13.80;54.50
1367;DHT22;16877;48.810;9.282;2022-12-07T04:51:29;13.70;54.10
1367;DHT22;16877;48.810;9.282;2022-12-07T04:53:58;13.70;53.90
1367;DHT22;16877;48.810;9.282;2022-12-07T04:56:25;13.70;53.70
1367;DHT22;16877;48.810;9.282;2022-12-07T04:58:54;13.70;53.30
1367;DHT22;16877;48.810;9.282;2022-12-07T05:01:24;13.60;52.50
1367;DHT22;16877;48.810;9.282;2022-12-07T05:03:52;13.50;51.90
1367;DHT22;16877;48.810;9.282;2022-12-07T05:06:20;13.50;51.80
1367;DHT22;16877;48.810;9.282;2022-12-07T05:08:54;13.50;51.90
1367;DHT22;16877;48.810;9.282;2022-12-07T05:11:21;13.50;52.20
1367;DHT22;16877;48.810;9.282;2022-12-07T05:14:12;13.50;52.40
1367;DHT22;16877;48.810;9.282;2022-12-07T05:16:40;13.60;52.40
1367;DHT22;16877;48.810;9.282;2022-12-07T05:19:12;13.60;52.30
1367;DHT22;16877;48.810;9.282;2022-12-07T05:21:40;13.60;52.40
1367;DHT22;16877;48.810;9.282;2022-12-07T05:24:12;13.60;52.50
1367;DHT22;16877;48.810;9.282;2022-12-07T05:26:42;13.70;52.60
1367;DHT22;16877;48.810;9.282;2022-12-07T05:29:11;13.70;52.70
1367;DHT22;16877;48.810;9.282;2022-12-07T05:31:39;13.70;52.80
1367;DHT22;16877;48.810;9.282;2022-12-07T05:34:06;13.70;52.80
1367;DHT22;16877;48.810;9.282;2022-12-07T05:36:36;13.70;52.90
1367;DHT22;16877;48.810;9.282;2022-12-07T05:39:04;13.70;53.10
1367;DHT22;16877;48.810;9.282;2022-12-07T05:41:37;13.70;53.10
1367;DHT22;16877;48.810;9.282;2022-12-07T05:44:22;13.80;53.90
1367;DHT22;16877;48.810;9.282;2022-12-07T05:46:49;13.80;53.50
1367;DHT22;16877;48.810;9.282;2022-12-07T05:49:21;13.80;53.60
1367;DHT22;16877;48.810;9.282;2022-12-07T05:51:49;13.80;53.80
1367;DHT22;16877;48.810;9.282;2022-12-07T05:54:19;13.80;54.00
1367;DHT22;16877;48.810;9.282;2022-12-07T05:56:49;13.80;54.00
1367;DHT22;16877;48.810;9.282;2022-12-07T05:59:22;13.80;54.00
1367;DHT22;16877;48.810;9.282;2022-12-07T06:01:54;13.80;54.00
1367;DHT22;16877;48.810;9.282;2022-12-07T06:04:23;13.80;54.10
1367;DHT22;16877;48.810;9.282;2022-12-07T06:06:52;13.90;54.30
1367;DHT22;16877;48.810;9.282;2022-12-07T06:09:21;13.90;54.30
1367;DHT22;16877;48.810;9.282;2022-12-07T06:11:51;13.90;54.40
1367;DHT22;16877;48.810;9.282;2022-12-07T06:14:36;13.90;54.40
1367;DHT22;16877;48.810;9.282;2022-12-07T06:17:03;13.90;54.50
1367;DHT22;16877;48.810;9.282;2022-12-07T06:19:31;13.90;54.50
1367;DHT22;16877;48.810;9.282;2022-12-07T06:21:59;13.90;54.50
1367;DHT22;16877;48.810;9.282;2022-12-07T06:24:27;14.00;54.60
1367;DHT22;16877;48.810;9.282;2022-12-07T06:26:56;13.90;54.50
1367;DHT22;16877;48.810;9.282;2022-12-07T06:29:25;13.90;54.50
1367;DHT22;16877;48.810;9.282;2022-12-07T06:31:53;14.00;54.60
1367;DHT22;16877;48.810;9.282;2022-12-07T06:34:21;14.00;54.50
1367;DHT22;16877;48.810;9.282;2022-12-07T06:36:50;14.00;54.60
1367;DHT22;16877;48.810;9.282;2022-12-07T06:39:19;14.00;54.50
1367;DHT22;16877;48.810;9.282;2022-12-07T06:41:47;14.00;54.40
1367;DHT22;16877;48.810;9.282;2022-12-07T06:44:16;14.00;54.50
1367;DHT22;16877;48.810;9.282;2022-12-07T06:46:45;14.00;54.40
1367;DHT22;16877;48.810;9.282;2022-12-07T06:49:13;14.00;54.40
1367;DHT22;16877;48.810;9.282;2022-12-07T06:51:41;14.00;54.60
1367;DHT22;16877;48.810;9.282;2022-12-07T06:54:12;14.10;54.90
1367;DHT22;16877;48.810;9.282;2022-12-07T06:56:42;14.10;55.00
1367;DHT22;16877;48.810;9.282;2022-12-07T06:59:09;14.10;55.10
1367;DHT22;16877;48.810;9.282;2022-12-07T07:01:39;14.10;55.10
1367;DHT22;16877;48.810;9.282;2022-12-07T07:04:06;14.20;55.20
1367;DHT22;16877;48.810;9.282;2022-12-07T07:06:38;14.20;55.20
1367;DHT22;16877;48.810;9.282;2022-12-07T07:09:07;14.20;55.10
1367;DHT22;16877;48.810;9.282;2022-12-07T07:11:36;14.20;55.20
1367;DHT22;16877;48.810;9.282;2022-12-07T07:16:55;15.80;74.70
1367;DHT22;16877;48.810;9.282;2022-12-07T07:19:23;16.80;71.50
1367;DHT22;16877;48.810;9.282;2022-12-07T07:21:51;17.30;68.10
1367;DHT22;16877;48.810;9.282;2022-12-07T07:24:23;17.50;65.30
1367;DHT22;16877;48.810;9.282;2022-12-07T07:26:51;17.40;62.50
1367;DHT22;16877;48.810;9.282;2022-12-07T07:29:25;17.20;58.00
1367;DHT22;16877;48.810;9.282;2022-12-07T07:31:59;16.90;55.60
1367;DHT22;16877;48.810;9.282;2022-12-07T07:34:27;16.70;54.50
1367;DHT22;16877;48.810;9.282;2022-12-07T07:36:55;16.50;54.00
1367;DHT22;16877;48.810;9.282;2022-12-07T07:39:22;16.30;53.60
1367;DHT22;16877;48.810;9.282;2022-12-07T07:41:50;16.10;53.30
1367;DHT22;16877;48.810;9.282;2022-12-07T07:44:18;15.90;53.10
1367;DHT22;16877;48.810;9.282;2022-12-07T07:46:51;15.80;52.60
1367;DHT22;16877;48.810;9.282;2022-12-07T07:49:36;15.60;52.30
1367;DHT22;16877;48.810;9.282;2022-12-07T07:52:09;15.40;51.90
1367;DHT22;16877;48.810;9.282;2022-12-07T07:54:37;15.30;51.60
1367;DHT22;16877;48.810;9.282;2022-12-07T07:57:10;15.20;51.30
1367;DHT22;16877;48.810;9.282;2022-12-07T07:59:39;15.10;51.20
1367;DHT22;16877;48.810;9.282;2022-12-07T08:02:14;15.00;52.20
1367;DHT22;16877;48.810;9.282;2022-12-07T08:04:56;14.70;50.00
1367;DHT22;16877;48.810;9.282;2022-12-07T08:07:27;14.70;52.90
1367;DHT22;16877;48.810;9.282;2022-12-07T08:09:56;14.70;50.60
1367;DHT22;16877;48.810;9.282;2022-12-07T08:12:24;14.60;49.90
1367;DHT22;16877;48.810;9.282;2022-12-07T08:14:52;14.50;49.60
1367;DHT22;16877;48.810;9.282;2022-12-07T08:17:22;14.50;49.40
1367;DHT22;16877;48.810;9.282;2022-12-07T08:19:51;14.40;49.10
1367;DHT22;16877;48.810;9.282;2022-12-07T08:22:23;14.40;49.00
1367;DHT22;16877;48.810;9.282;2022-12-07T08:24:52;14.30;48.70
1367;DHT22;16877;48.810;9.282;2022-12-07T08:27:25;14.30;48.90
1367;DHT22;16877;48.810;9.282;2022-12-07T08:29:54;14.30;48.70
1367;DHT22;16877;48.810;9.282;2022-12-07T08:32:21;14.30;48.70
1367;DHT22;16877;48.810;9.282;2022-12-07T08:34:49;14.30;48.70
1367;DHT22;16877;48.810;9.282;2022-12-07T08:37:17;14.30;49.30
1367;DHT22;16877;48.810;9.282;2022-12-07T08:39:48;14.20;48.60
1367;DHT22;16877;48.810;9.282;2022-12-07T08:42:16;14.30;48.70
1367;DHT22;16877;48.810;9.282;2022-12-07T08:44:45;14.30;48.70
1367;DHT22;16877;48.810;9.282;2022-12-07T08:47:14;14.20;48.70
1367;DHT22;16877;48.810;9.282;2022-12-07T08:49:45;14.30;48.70
1367;DHT22;16877;48.810;9.282;2022-12-07T08:52:16;14.30;48.70
1367;DHT22;16877;48.810;9.282;2022-12-07T08:54:44;14.30;48.60
1367;DHT22;16877;48.810;9.282;2022-12-07T08:57:14;14.30;48.50
1367;DHT22;16877;48.810;9.282;2022-12-07T08:59:48;14.30;48.50
1367;DHT22;16877;48.810;9.282;2022-12-07T09:02:16;14.30;48.40
1367;DHT22;16877;48.810;9.282;2022-12-07T09:04:45;14.30;48.40
1367;DHT22;16877;48.810;9.282;2022-12-07T09:07:13;14.30;48.50
1367;DHT22;16877;48.810;9.282;2022-12-07T09:09:42;14.40;48.40
1367;DHT22;16877;48.810;9.282;2022-12-07T09:12:11;14.40;48.20
1367;DHT22;16877;48.810;9.282;2022-12-07T09:14:41;14.40;48.20
1367;DHT22;16877;48.810;9.282;2022-12-07T09:17:36;14.40;48.10
1367;DHT22;16877;48.810;9.282;2022-12-07T09:20:05;14.50;48.10
1367;DHT22;16877;48.810;9.282;2022-12-07T09:22:33;14.40;48.10
1367;DHT22;16877;48.810;9.282;2022-12-07T09:25:02;14.50;48.00
1367;DHT22;16877;48.810;9.282;2022-12-07T09:27:31;14.50;47.90
1367;DHT22;16877;48.810;9.282;2022-12-07T09:30:06;14.50;47.80
1367;DHT22;16877;48.810;9.282;2022-12-07T09:32:36;14.60;48.00
1367;DHT22;16877;48.810;9.282;2022-12-07T09:35:06;14.60;47.90
1367;DHT22;16877;48.810;9.282;2022-12-07T09:37:35;14.70;47.90
1367;DHT22;16877;48.810;9.282;2022-12-07T09:40:05;14.70;47.80
1367;DHT22;16877;48.810;9.282;2022-12-07T09:42:35;14.80;47.90
1367;DHT22;16877;48.810;9.282;2022-12-07T09:45:13;14.80;47.90
1367;DHT22;16877;48.810;9.282;2022-12-07T09:47:46;14.90;47.90
1367;DHT22;16877;48.810;9.282;2022-12-07T09:50:18;14.90;47.80
1367;DHT22;16877;48.810;9.282;2022-12-07T09:52:52;15.00;47.80
1367;DHT22;16877;48.810;9.282;2022-12-07T09:55:29;15.10;47.80
1367;DHT22;16877;48.810;9.282;2022-12-07T09:58:01;15.10;47.70
1367;DHT22;16877;48.810;9.282;2022-12-07T10:00:32;15.10;47.60
1367;DHT22;16877;48.810;9.282;2022-12-07T10:03:07;15.10;47.30
1367;DHT22;16877;48.810;9.282;2022-12-07T10:05:43;15.10;47.10
1367;DHT22;16877;48.810;9.282;2022-12-07T10:08:12;15.10;47.20
1367;DHT22;16877;48.810;9.282;2022-12-07T10:10:41;15.10;47.20
1367;DHT22;16877;48.810;9.282;2022-12-07T10:13:13;15.10;47.10
1367;DHT22;16877;48.810;9.282;2022-12-07T10:15:46;15.10;47.00
1367;DHT22;16877;48.810;9.282;2022-12-07T10:18:21;15.20;47.10
1367;DHT22;16877;48.810;9.282;2022-12-07T10:21:10;15.20;47.10
1367;DHT22;16877;48.810;9.282;2022-12-07T10:23:39;15.20;47.20
1367;DHT22;16877;48.810;9.282;2022-12-07T10:26:32;15.20;47.20
1367;DHT22;16877;48.810;9.282;2022-12-07T10:29:04;15.20;47.10
1367;DHT22;16877;48.810;9.282;2022-12-07T10:31:42;15.20;47.00
1367;DHT22;16877;48.810;9.282;2022-12-07T10:34:21;15.10;46.90
1367;DHT22;16877;48.810;9.282;2022-12-07T10:36:51;15.10;46.70
1367;DHT22;16877;48.810;9.282;2022-12-07T10:39:24;15.00;46.60
1367;DHT22;16877;48.810;9.282;2022-12-07T10:41:55;15.00;46.60
1367;DHT22;16877;48.810;9.282;2022-12-07T10:44:25;15.00;46.60
1367;DHT22;16877;48.810;9.282;2022-12-07T10:47:17;15.10;52.40
1367;DHT22;16877;48.810;9.282;2022-12-07T10:53:27;15.20;48.40
1367;DHT22;16877;48.810;9.282;2022-12-07T10:56:19;15.10;47.90
1367;DHT22;16877;48.810;9.282;2022-12-07T10:59:01;15.10;47.60
1367;DHT22;16877;48.810;9.282;2022-12-07T11:01:33;15.00;47.40
1367;DHT22;16877;48.810;9.282;2022-12-07T11:04:29;15.00;47.90
1367;DHT22;16877;48.810;9.282;2022-12-07T11:07:10;15.00;47.20
1367;DHT22;16877;48.810;9.282;2022-12-07T11:10:01;14.90;47.20
1367;DHT22;16877;48.810;9.282;2022-12-07T11:12:41;14.90;47.20
1367;DHT22;16877;48.810;9.282;2022-12-07T11:15:16;14.90;47.20
1367;DHT22;16877;48.810;9.282;2022-12-07T11:17:50;14.90;47.30
1367;DHT22;16877;48.810;9.282;2022-12-07T11:20:34;14.80;47.30
1367;DHT22;16877;48.810;9.282;2022-12-07T11:23:08;14.80;47.40
1367;DHT22;16877;48.810;9.282;2022-12-07T11:25:47;14.80;47.50
1367;DHT22;16877;48.810;9.282;2022-12-07T11:28:31;14.80;47.60
1367;DHT22;16877;48.810;9.282;2022-12-07T11:31:11;14.90;47.80
1367;DHT22;16877;48.810;9.282;2022-12-07T11:33:44;14.90;47.90
1367;DHT22;16877;48.810;9.282;2022-12-07T11:36:31;14.80;47.90
1367;DHT22;16877;48.810;9.282;2022-12-07T11:39:01;14.90;48.00
1367;DHT22;16877;48.810;9.282;2022-12-07T11:41:32;14.90;48.10
1367;DHT22;16877;48.810;9.282;2022-12-07T11:44:06;14.90;48.20
1367;DHT22;16877;48.810;9.282;2022-12-07T11:46:45;14.90;48.30
1367;DHT22;16877;48.810;9.282;2022-12-07T11:49:21;14.90;48.40
1367;DHT22;16877;48.810;9.282;2022-12-07T11:51:53;14.90;48.50
1367;DHT22;16877;48.810;9.282;2022-12-07T11:54:28;14.90;48.50
1367;DHT22;16877;48.810;9.282;2022-12-07T11:57:02;14.80;48.50
1367;DHT22;16877;48.810;9.282;2022-12-07T11:59:35;14.80;48.60
1367;DHT22;16877;48.810;9.282;2022-12-07T12:02:12;14.80;48.80
1367;DHT22;16877;48.810;9.282;2022-12-07T12:04:55;14.70;48.80
1367;DHT22;16877;48.810;9.282;2022-12-07T12:07:27;14.70;49.00
1367;DHT22;16877;48.810;9.282;2022-12-07T12:09:59;14.80;54.20
1367;DHT22;16877;48.810;9.282;2022-12-07T12:12:45;14.90;51.90
1367;DHT22;16877;48.810;9.282;2022-12-07T12:15:28;14.80;50.40
1367;DHT22;16877;48.810;9.282;2022-12-07T12:18:14;14.90;50.10
1367;DHT22;16877;48.810;9.282;2022-12-07T12:20:46;14.80;49.80
1367;DHT22;16877;48.810;9.282;2022-12-07T12:23:20;14.80;49.80
1367;DHT22;16877;48.810;9.282;2022-12-07T12:25:49;14.70;49.60
1367;DHT22;16877;48.810;9.282;2022-12-07T12:28:24;14.70;49.60
1367;DHT22;16877;48.810;9.282;2022-12-07T12:31:11;14.70;49.60
1367;DHT22;16877;48.810;9.282;2022-12-07T12:33:43;14.70;49.60
1367;DHT22;16877;48.810;9.282;2022-12-07T12:36:19;14.60;49.40
1367;DHT22;16877;48.810;9.282;2022-12-07T12:39:08;14.60;49.40
1367;DHT22;16877;48.810;9.282;2022-12-07T12:41:56;14.60;49.40
1367;DHT22;16877;48.810;9.282;2022-12-07T12:47:51;14.60;49.40
1367;DHT22;16877;48.810;9.282;2022-12-07T12:50:23;14.60;49.40
1367;DHT22;16877;48.810;9.282;2022-12-07T12:53:02;14.60;49.40
1367;DHT22;16877;48.810;9.282;2022-12-07T12:58:42;14.60;49.30
1367;DHT22;16877;48.810;9.282;2022-12-07T13:01:44;14.60;49.30
1367;DHT22;16877;48.810;9.282;2022-12-07T13:07:58;14.60;49.80
1367;DHT22;16877;48.810;9.282;2022-12-07T13:10:44;14.60;49.30
1367;DHT22;16877;48.810;9.282;2022-12-07T13:13:32;14.60;49.30
1367;DHT22;16877;48.810;9.282;2022-12-07T13:16:41;14.50;49.20
1367;DHT22;16877;48.810;9.282;2022-12-07T13:22:48;14.50;49.20
1367;DHT22;16877;48.810;9.282;2022-12-07T13:25:27;14.40;49.10
1367;DHT22;16877;48.810;9.282;2022-12-07T13:28:00;14.40;49.10
1367;DHT22;16877;48.810;9.282;2022-12-07T13:30:31;14.40;49.20
1367;DHT22;16877;48.810;9.282;2022-12-07T13:33:03;14.40;49.10
1367;DHT22;16877;48.810;9.282;2022-12-07T13:35:33;14.40;49.10
1367;DHT22;16877;48.810;9.282;2022-12-07T13:38:13;14.40;49.10
1367;DHT22;16877;48.810;9.282;2022-12-07T13:40:43;14.40;49.20
1367;DHT22;16877;48.810;9.282;2022-12-07T13:43:25;14.40;49.10
1367;DHT22;16877;48.810;9.282;2022-12-07T13:45:56;14.40;49.10
1367;DHT22;16877;48.810;9.282;2022-12-07T13:48:30;14.40;49.10
1367;DHT22;16877;48.810;9.282;2022-12-07T13:51:01;14.40;49.10
1367;DHT22;16877;48.810;9.282;2022-12-07T13:53:28;14.40;49.20
1367;DHT22;16877;48.810;9.282;2022-12-07T13:55:57;14.40;49.20
1367;DHT22;16877;48.810;9.282;2022-12-07T13:58:31;14.40;49.20
1367;DHT22;16877;48.810;9.282;2022-12-07T14:01:05;14.40;49.30
1367;DHT22;16877;48.810;9.282;2022-12-07T14:03:36;14.40;49.30
1367;DHT22;16877;48.810;9.282;2022-12-07T14:06:07;14.40;49.40
1367;DHT22;16877;48.810;9.282;2022-12-07T14:08:39;14.40;49.40
1367;DHT22;16877;48.810;9.282;2022-12-07T14:11:12;14.40;49.40
1367;DHT22;16877;48.810;9.282;2022-12-07T14:13:45;14.40;49.40
1367;DHT22;16877;48.810;9.282;2022-12-07T14:16:23;14.40;49.40
1367;DHT22;16877;48.810;9.282;2022-12-07T14:18:53;14.40;49.40
1367;DHT22;16877;48.810;9.282;2022-12-07T14:21:22;14.40;49.40
1367;DHT22;16877;48.810;9.282;2022-12-07T14:24:09;14.40;49.40
1367;DHT22;16877;48.810;9.282;2022-12-07T14:26:37;14.40;49.40
1367;DHT22;16877;48.810;9.282;2022-12-07T14:29:31;14.40;49.40
1367;DHT22;16877;48.810;9.282;2022-12-07T14:32:18;14.50;49.50
1367;DHT22;16877;48.810;9.282;2022-12-07T14:35:12;14.50;49.60
1367;DHT22;16877;48.810;9.282;2022-12-07T14:37:43;14.60;49.60
1367;DHT22;16877;48.810;9.282;2022-12-07T14:40:13;14.60;49.60
1367;DHT22;16877;48.810;9.282;2022-12-07T14:42:45;14.60;49.50
1367;DHT22;16877;48.810;9.282;2022-12-07T14:45:15;14.60;49.40
1367;DHT22;16877;48.810;9.282;2022-12-07T14:47:48;14.60;49.40
1367;DHT22;16877;48.810;9.282;2022-12-07T14:50:19;14.50;49.20
1367;DHT22;16877;48.810;9.282;2022-12-07T14:52:49;14.50;49.20
1367;DHT22;16877;48.810;9.282;2022-12-07T14:55:22;14.50;49.20
1367;DHT22;16877;48.810;9.282;2022-12-07T14:57:50;14.50;49.20
1367;DHT22;16877;48.810;9.282;2022-12-07T15:00:20;14.50;49.20
1367;DHT22;16877;48.810;9.282;2022-12-07T15:02:48;14.50;49.20
1367;DHT22;16877;48.810;9.282;2022-12-07T15:05:22;14.50;49.30
1367;DHT22;16877;48.810;9.282;2022-12-07T15:07:54;14.50;49.30
1367;DHT22;16877;48.810;9.282;2022-12-07T15:10:27;14.50;49.30
1367;DHT22;16877;48.810;9.282;2022-12-07T15:12:57;14.40;49.30
1367;DHT22;16877;48.810;9.282;2022-12-07T15:15:47;14.40;49.30
1367;DHT22;16877;48.810;9.282;2022-12-07T15:18:14;14.40;49.30
1367;DHT22;16877;48.810;9.282;2022-12-07T15:20:46;14.40;49.20
1367;DHT22;16877;48.810;9.282;2022-12-07T15:23:15;14.40;49.30
1367;DHT22;16877;48.810;9.282;2022-12-07T15:25:43;14.40;49.30
1367;DHT22;16877;48.810;9.282;2022-12-07T15:28:11;14.30;49.30
1367;DHT22;16877;48.810;9.282;2022-12-07T15:30:39;14.30;49.30
1367;DHT22;16877;48.810;9.282;2022-12-07T15:33:08;14.30;49.30
1367;DHT22;16877;48.810;9.282;2022-12-07T15:35:38;14.30;49.40
1367;DHT22;16877;48.810;9.282;2022-12-07T15:38:07;14.30;49.40
1367;DHT22;16877;48.810;9.282;2022-12-07T15:40:35;14.30;49.50
1367;DHT22;16877;48.810;9.282;2022-12-07T15:43:05;14.20;49.50
1367;DHT22;16877;48.810;9.282;2022-12-07T15:45:53;14.20;49.60
1367;DHT22;16877;48.810;9.282;2022-12-07T15:48:20;14.20;49.70
1367;DHT22;16877;48.810;9.282;2022-12-07T15:50:47;14.20;49.80
1367;DHT22;16877;48.810;9.282;2022-12-07T15:53:16;14.20;49.90
1367;DHT22;16877;48.810;9.282;2022-12-07T15:55:44;14.20;49.90
1367;DHT22;16877;48.810;9.282;2022-12-07T15:58:13;14.10;50.00
1367;DHT22;16877;48.810;9.282;2022-12-07T16:00:40;14.10;50.00
1367;DHT22;16877;48.810;9.282;2022-12-07T16:03:10;14.10;50.10
1367;DHT22;16877;48.810;9.282;2022-12-07T16:05:38;14.10;50.10
1367;DHT22;16877;48.810;9.282;2022-12-07T16:08:06;14.10;50.10
1367;DHT22;16877;48.810;9.282;2022-12-07T16:10:35;14.10;50.10
1367;DHT22;16877;48.810;9.282;2022-12-07T16:13:03;14.10;50.10
1367;DHT22;16877;48.810;9.282;2022-12-07T16:15:37;14.10;50.10
1367;DHT22;16877;48.810;9.282;2022-12-07T16:18:07;14.10;50.10
1367;DHT22;16877;48.810;9.282;2022-12-07T16:20:34;14.00;50.00
1367;DHT22;16877;48.810;9.282;2022-12-07T16:23:02;14.00;50.00
1367;DHT22;16877;48.810;9.282;2022-12-07T16:25:30;14.00;50.00
1367;DHT22;16877;48.810;9.282;2022-12-07T16:28:04;14.00;49.90
1367;DHT22;16877;48.810;9.282;2022-12-07T16:30:33;13.90;49.80
1367;DHT22;16877;48.810;9.282;2022-12-07T16:33:00;13.90;49.80
1367;DHT22;16877;48.810;9.282;2022-12-07T16:35:27;13.90;49.80
1367;DHT22;16877;48.810;9.282;2022-12-07T16:37:56;13.90;49.70